Aérodrome :
LOGIN :

S'inscrire | Disclaimer

   EN    FR    IT 

 










Légende :    VFR   VFR Marginal   IFR   IFR Intensif   IFR Très Intensif
Visi : 
Plafond : 
>= 8 km
>= 3000ft
5 à 8 km
1000 à 3000 ft
1500m à 5 km
500 à 1000 ft
800 à 1500m
200 à 500 ft
< 800m
< 200 ft
Symboles :   Orages  Brouillard  Fortes neiges  Fortes précipitations  Vent > 20 kt
SIGMETs :   Divers  Orages  Givrage  Turbulence  Onde Orograph.  Cendres Volcan.






- Altitude de l'aérodrome : 126 ft
- Code IATA : WIC


EGPC - Wick

DERNIER METAR :
  • 011450Z AUTO 30026KT 9999 SCT027/// SCT040/// 09/03 Q1013

METARs EXPIRÉS :
  • 011420Z AUTO 30027KT 9999 SCT028/// 09/03 Q1013
  • 011350Z AUTO 30023KT 9999 BKN027/// 09/04 Q1013
  • 011320Z 31026KT 8000 FEW008 SCT018 09/05 Q1013
  • 011250Z 30025KT 8000 FEW008 SCT018 09/06 Q1013
  • 011220Z 30020KT 8000 FEW008 SCT018 09/07 Q1013

TAF TAF EGPC
Valide du 01 à 15h jusqu'au 02 à 00h UTC


011359Z 0115/0124 29018KT 9999 SCT025
TEMPO 0115/0121 30025G35KT
TEMPO 0121/0124 26022G32KT
ATIS : +44 1955 607 596



MET'MAP, la Météo Aéronautique d'un coup d'oeil ! - Copyright ORBIFLY Décembre 2007 - Disclaimer

ORBIFLY MET'MAP TEAM :

Programmation & Développement : Alexandra Zaïnal
Sur une idée originale de : Baudouin d'Aumeries
Assistance à la programmation : Marc-Olivier Méhu
Soutien technique & logistique : Manuel Goepfert

Contact : metmap@orbifly.com




SOURCES & CREDITS :

   NOAA